createdAt,value
2024-01-17T00:01:27.718Z,11.83
2024-01-17T00:06:32.032Z,11.82
2024-01-17T00:11:35.994Z,11.87
2024-01-17T00:16:40.445Z,11.91
2024-01-17T00:21:44.172Z,11.91
2024-01-17T00:26:47.395Z,11.91
2024-01-17T00:31:50.649Z,11.93
2024-01-17T00:36:53.648Z,11.95
2024-01-17T00:41:56.505Z,11.95
2024-01-17T00:46:59.762Z,11.98
2024-01-17T00:52:03.507Z,11.91
2024-01-17T00:57:06.821Z,11.98
2024-01-17T01:02:09.666Z,11.97
2024-01-17T01:07:13.012Z,11.96
2024-01-17T01:12:16.163Z,11.91
2024-01-17T01:17:22.573Z,11.88
2024-01-17T01:22:26.601Z,11.88
2024-01-17T01:27:33.218Z,11.85
2024-01-17T01:32:36.867Z,11.82
2024-01-17T01:37:39.945Z,11.78
2024-01-17T01:42:45.617Z,11.74
2024-01-17T01:47:48.746Z,11.73
2024-01-17T01:52:56.722Z,11.73
2024-01-17T01:57:59.461Z,11.70
2024-01-17T02:03:03.019Z,11.65
2024-01-17T02:08:06.500Z,11.56
2024-01-17T02:13:11.202Z,11.56
2024-01-17T02:18:14.742Z,11.53
2024-01-17T02:23:30.877Z,11.53
2024-01-17T02:28:35.586Z,11.51
2024-01-17T02:33:39.805Z,11.50
2024-01-17T02:38:43.995Z,11.51
2024-01-17T02:43:49.873Z,11.53
2024-01-17T02:48:53.557Z,11.61
2024-01-17T02:53:56.341Z,11.67
2024-01-17T02:59:00.522Z,11.63
2024-01-17T03:04:03.155Z,11.55
2024-01-17T03:09:06.342Z,11.51
2024-01-17T03:14:11.178Z,11.49
2024-01-17T03:19:17.189Z,11.48
2024-01-17T03:24:21.010Z,11.37
2024-01-17T03:29:24.515Z,11.41
2024-01-17T03:34:27.398Z,11.38
2024-01-17T03:39:32.225Z,11.35
2024-01-17T03:44:35.576Z,11.34
2024-01-17T03:49:39.143Z,11.29
2024-01-17T03:54:43.552Z,11.31
2024-01-17T03:59:46.569Z,11.30
2024-01-17T04:04:50.619Z,11.34
2024-01-17T04:09:53.971Z,11.32
2024-01-17T04:14:57.359Z,11.33
2024-01-17T04:20:00.761Z,11.30
2024-01-17T04:25:05.111Z,11.25
2024-01-17T04:30:12.218Z,11.24
2024-01-17T04:35:19.786Z,11.21
2024-01-17T04:40:23.764Z,11.22
2024-01-17T04:45:26.791Z,11.19
2024-01-17T04:50:31.578Z,11.03
2024-01-17T04:55:34.985Z,10.91
2024-01-17T05:00:37.766Z,10.83
2024-01-17T05:05:45.183Z,10.81
2024-01-17T05:10:47.957Z,10.69
2024-01-17T05:15:51.540Z,10.71
2024-01-17T05:20:55.145Z,10.63
2024-01-17T05:25:58.398Z,10.62
2024-01-17T05:31:01.962Z,10.56
2024-01-17T05:36:05.372Z,10.53
2024-01-17T05:41:08.500Z,10.58
2024-01-17T05:46:11.194Z,10.56
2024-01-17T05:51:14.640Z,10.51
2024-01-17T05:56:17.809Z,10.49
2024-01-17T06:01:22.231Z,10.47
2024-01-17T06:06:25.002Z,10.44
2024-01-17T06:11:28.379Z,10.42
2024-01-17T06:16:31.407Z,10.27
2024-01-17T06:21:34.605Z,10.35
2024-01-17T06:26:38.211Z,10.40
2024-01-17T06:31:41.099Z,10.42
2024-01-17T06:36:45.091Z,10.41
2024-01-17T06:41:47.998Z,10.39
2024-01-17T06:46:51.092Z,10.38
2024-01-17T06:51:53.995Z,10.42
2024-01-17T06:56:57.192Z,10.38
2024-01-17T07:01:59.928Z,10.42
2024-01-17T07:07:03.151Z,10.41
2024-01-17T07:12:07.117Z,10.40
2024-01-17T07:17:10.725Z,10.38
2024-01-17T07:22:15.550Z,10.32
2024-01-17T07:27:18.557Z,10.32
2024-01-17T07:32:23.489Z,10.30
2024-01-17T07:37:26.745Z,10.28
2024-01-17T07:42:30.335Z,10.27
2024-01-17T07:47:34.430Z,10.24
2024-01-17T07:52:37.036Z,10.25
2024-01-17T07:57:40.109Z,10.26
2024-01-17T08:02:43.214Z,10.24
2024-01-17T08:07:50.604Z,10.28
2024-01-17T08:12:53.733Z,10.28
2024-01-17T08:17:56.643Z,10.35
2024-01-17T08:22:59.454Z,10.37
2024-01-17T08:28:02.644Z,10.42
2024-01-17T08:33:06.463Z,10.43
2024-01-17T08:38:09.666Z,10.44
2024-01-17T08:43:13.342Z,10.42
2024-01-17T08:48:16.049Z,10.47
2024-01-17T08:53:18.992Z,10.46
2024-01-17T08:58:21.899Z,10.50
2024-01-17T09:03:26.863Z,10.56
2024-01-17T09:08:30.637Z,10.58
2024-01-17T09:13:34.563Z,10.62
2024-01-17T09:18:37.915Z,10.59
2024-01-17T09:23:42.085Z,10.56
2024-01-17T09:28:45.110Z,10.69
2024-01-17T09:33:48.184Z,11.03
2024-01-17T09:38:51.784Z,12.30
2024-01-17T09:43:55.546Z,13.41
2024-01-17T09:49:00.121Z,13.66
2024-01-17T09:54:06.807Z,13.79
2024-01-17T09:59:16.208Z,14.26
2024-01-17T10:04:20.162Z,14.27
2024-01-17T10:09:26.415Z,14.58
2024-01-17T10:14:29.486Z,14.47
2024-01-17T10:19:35.041Z,14.84
2024-01-17T10:24:42.962Z,15.15
2024-01-17T10:29:46.888Z,14.37
2024-01-17T10:34:50.575Z,14.54
2024-01-17T10:40:13.500Z,15.43
2024-01-17T10:45:25.371Z,15.91
2024-01-17T10:50:31.360Z,16.32
2024-01-17T10:55:36.757Z,15.74
2024-01-17T11:00:42.421Z,14.58
2024-01-17T11:05:52.833Z,14.19
2024-01-17T11:10:57.830Z,13.83
2024-01-17T11:16:03.416Z,13.59
2024-01-17T11:21:07.647Z,13.50
2024-01-17T11:26:34.300Z,13.27
2024-01-17T11:31:47.521Z,13.24
2024-01-17T11:36:50.348Z,13.09
2024-01-17T11:41:53.852Z,12.88
2024-01-17T11:46:58.990Z,12.95
2024-01-17T11:52:02.359Z,12.75
2024-01-17T11:57:07.855Z,12.74
2024-01-17T12:02:43.782Z,12.62
2024-01-17T12:07:51.197Z,12.64
2024-01-17T12:12:58.292Z,12.57
2024-01-17T12:18:05.586Z,12.56
2024-01-17T12:23:18.835Z,12.47
2024-01-17T12:28:26.260Z,12.52
2024-01-17T12:33:31.753Z,12.62
2024-01-17T12:38:37.173Z,12.67
2024-01-17T12:43:41.079Z,12.61
2024-01-17T12:49:01.643Z,12.42
2024-01-17T12:54:07.281Z,12.12
2024-01-17T12:59:10.990Z,12.01
2024-01-17T13:04:14.061Z,11.87
2024-01-17T13:09:20.746Z,11.90
2024-01-17T13:14:25.384Z,11.99
2024-01-17T13:19:30.540Z,12.00
2024-01-17T13:24:34.658Z,11.86
2024-01-17T13:29:37.758Z,11.88
2024-01-17T13:34:42.132Z,11.80
2024-01-17T13:39:45.015Z,11.77
2024-01-17T13:44:49.250Z,11.76
2024-01-17T13:49:53.775Z,11.79
2024-01-17T13:54:56.844Z,11.81
2024-01-17T13:59:59.856Z,11.89
2024-01-17T14:05:02.604Z,11.99
2024-01-17T14:10:09.067Z,12.24
2024-01-17T14:15:12.555Z,12.34
2024-01-17T14:20:18.610Z,12.34
2024-01-17T14:25:21.332Z,12.40
2024-01-17T14:30:25.019Z,12.26
2024-01-17T14:35:31.394Z,12.26
2024-01-17T14:40:36.555Z,12.27
2024-01-17T14:45:40.263Z,12.34
2024-01-17T14:50:43.228Z,12.33
2024-01-17T14:55:47.559Z,12.27
2024-01-17T15:00:51.526Z,12.29
2024-01-17T15:05:55.637Z,12.35
2024-01-17T15:10:59.317Z,12.41
2024-01-17T15:16:01.918Z,12.46
2024-01-17T15:21:04.937Z,12.38
2024-01-17T15:26:07.911Z,12.34
2024-01-17T15:31:11.275Z,12.33
2024-01-17T15:36:14.879Z,12.26
2024-01-17T15:41:18.515Z,12.26
2024-01-17T15:46:21.230Z,12.15
2024-01-17T15:51:24.468Z,12.21
2024-01-17T15:56:27.653Z,12.19
2024-01-17T16:01:30.905Z,12.24
2024-01-17T16:06:34.074Z,12.22
2024-01-17T16:11:37.398Z,12.28
2024-01-17T16:16:40.076Z,12.33
2024-01-17T16:21:42.973Z,12.31
2024-01-17T16:26:46.754Z,12.31
2024-01-17T16:31:50.997Z,12.22
2024-01-17T16:36:53.868Z,12.12
2024-01-17T16:41:57.835Z,12.10
2024-01-17T16:47:06.121Z,12.15
2024-01-17T16:52:11.438Z,12.12
2024-01-17T16:57:15.234Z,12.08
2024-01-17T17:02:22.010Z,12.05
2024-01-17T17:07:29.302Z,11.96
2024-01-17T17:12:35.683Z,11.92
2024-01-17T17:17:38.624Z,11.91
2024-01-17T17:22:41.012Z,11.89
2024-01-17T17:27:47.720Z,11.86
2024-01-17T17:32:51.187Z,11.77
2024-01-17T17:37:54.705Z,11.76
2024-01-17T17:42:57.881Z,11.72
2024-01-17T17:48:02.432Z,11.70
2024-01-17T17:53:05.232Z,11.67
2024-01-17T17:58:08.451Z,11.64
2024-01-17T18:03:11.896Z,11.63
2024-01-17T18:08:16.483Z,11.58
2024-01-17T18:13:19.854Z,11.46
2024-01-17T18:18:23.504Z,11.35
2024-01-17T18:23:26.042Z,11.30
2024-01-17T18:28:28.502Z,11.29
2024-01-17T18:33:32.073Z,11.22
2024-01-17T18:38:35.517Z,11.23
2024-01-17T18:43:39.258Z,11.18
2024-01-17T18:48:42.905Z,11.14
2024-01-17T18:53:49.492Z,11.16
2024-01-17T18:58:57.173Z,11.19
2024-01-17T19:04:03.912Z,11.20
2024-01-17T19:09:07.248Z,11.19
2024-01-17T19:14:12.545Z,11.23
2024-01-17T19:19:15.080Z,11.26
2024-01-17T19:24:17.764Z,11.31
2024-01-17T19:29:20.122Z,11.37
2024-01-17T19:34:22.766Z,11.37
2024-01-17T19:39:25.383Z,11.45
2024-01-17T19:44:29.680Z,11.44
2024-01-17T19:49:33.930Z,11.46
2024-01-17T19:54:36.571Z,11.42
2024-01-17T19:59:39.868Z,11.34
2024-01-17T20:04:44.517Z,11.28
2024-01-17T20:09:47.755Z,11.29
2024-01-17T20:14:51.956Z,11.28
2024-01-17T20:19:55.275Z,11.29
2024-01-17T20:24:57.702Z,11.26
2024-01-17T20:30:00.258Z,11.31
2024-01-17T20:35:04.262Z,11.29
2024-01-17T20:40:08.484Z,11.11
2024-01-17T20:45:11.587Z,11.02
2024-01-17T20:50:17.583Z,10.94
2024-01-17T20:55:20.815Z,10.92
2024-01-17T21:00:24.535Z,10.95
2024-01-17T21:05:28.942Z,11.05
2024-01-17T21:10:31.962Z,10.86
2024-01-17T21:15:35.123Z,10.79
2024-01-17T21:20:38.299Z,10.67
2024-01-17T21:25:42.262Z,10.60
2024-01-17T21:30:45.201Z,10.61
2024-01-17T21:35:49.467Z,10.61
2024-01-17T21:40:52.470Z,10.57
2024-01-17T21:45:57.021Z,10.52
2024-01-17T21:51:06.030Z,10.52
2024-01-17T21:56:09.487Z,10.52
2024-01-17T22:01:13.907Z,10.53
2024-01-17T22:06:19.079Z,10.51
2024-01-17T22:11:24.280Z,10.50
2024-01-17T22:16:27.714Z,10.47
2024-01-17T22:21:32.304Z,10.48
2024-01-17T22:26:35.722Z,10.43
2024-01-17T22:31:38.477Z,10.44
2024-01-17T22:36:41.028Z,10.43
2024-01-17T22:41:45.569Z,10.42
2024-01-17T22:46:48.148Z,10.39
2024-01-17T22:51:57.961Z,10.39
2024-01-17T22:57:01.949Z,10.41
2024-01-17T23:02:05.971Z,10.43
2024-01-17T23:07:08.993Z,10.48
2024-01-17T23:12:12.151Z,10.52
2024-01-17T23:17:14.832Z,10.52
2024-01-17T23:22:17.560Z,10.58
2024-01-17T23:27:20.667Z,10.57
2024-01-17T23:32:23.745Z,10.57
2024-01-17T23:37:26.818Z,10.58
2024-01-17T23:42:31.199Z,10.59
2024-01-17T23:47:35.084Z,10.62
2024-01-17T23:52:39.668Z,10.61
2024-01-17T23:57:44.134Z,10.62
